Time;durP1;ratioP1;P1;durP2;ratioP2;P2;SDS_P1;SDS_P2;PMS_P1;PMS_P2;Temp;Humidity;BMP_temperature;BMP_pressure;BME280_temperature;BME280_humidity;BME280_pressure;Samples;Min_cycle;Max_cycle;Signal;HPM_P1;HPM_P2
2024/03/22 00:00:20;;;;;;;15.10;14.47;;;21.30;68.00;;;;;;4992249;28;20451;-56
2024/03/22 00:02:46;;;;;;;15.17;14.60;;;21.30;68.10;;;;;;4992241;28;20466;-57
2024/03/22 00:05:13;;;;;;;15.73;15.13;;;21.30;68.10;;;;;;4988251;28;20447;-56
2024/03/22 00:07:39;;;;;;;14.60;14.10;;;21.30;68.10;;;;;;4992176;28;20952;-55
2024/03/22 00:10:07;;;;;;;15.10;14.47;;;21.30;68.10;;;;;;4992583;28;20505;-55
2024/03/22 00:12:32;;;;;;;14.53;14.03;;;21.30;68.30;;;;;;4992744;28;20223;-54
2024/03/22 00:15:00;;;;;;;14.63;14.10;;;21.30;68.40;;;;;;4988348;28;20494;-60
2024/03/22 00:17:27;;;;;;;17.33;16.77;;;21.20;68.30;;;;;;4988209;28;20211;-55
2024/03/22 00:19:53;;;;;;;14.63;14.10;;;21.20;68.40;;;;;;4992231;28;20534;-54
2024/03/22 00:22:19;;;;;;;15.00;14.50;;;21.20;68.50;;;;;;4992275;28;20463;-53
2024/03/22 00:24:46;;;;;;;14.70;14.20;;;21.20;68.60;;;;;;4987919;28;20436;-58
2024/03/22 00:27:12;;;;;;;15.60;14.90;;;21.20;68.60;;;;;;4991948;28;20208;-59
2024/03/22 00:29:39;;;;;;;14.80;14.30;;;21.20;68.60;;;;;;4991973;28;20944;-56
2024/03/22 00:32:07;;;;;;;15.13;14.50;;;21.20;68.60;;;;;;4992225;28;20307;-59
2024/03/22 00:34:34;;;;;;;14.67;14.07;;;21.20;68.60;;;;;;4988797;28;20475;-54
2024/03/22 00:37:00;;;;;;;14.90;14.20;;;21.20;68.70;;;;;;4991801;28;20522;-58
2024/03/22 00:39:26;;;;;;;14.40;13.90;;;21.20;68.70;;;;;;4992211;28;20637;-56
2024/03/22 00:41:52;;;;;;;15.43;14.63;;;21.20;68.70;;;;;;4992022;28;20232;-56
2024/03/22 00:44:19;;;;;;;14.43;13.83;;;21.10;68.60;;;;;;4983509;28;20832;-60
2024/03/22 00:46:46;;;;;;;15.03;14.50;;;21.10;68.70;;;;;;4991685;28;20700;-58
2024/03/22 00:49:13;;;;;;;14.70;14.20;;;21.10;68.70;;;;;;4992369;28;20789;-56
2024/03/22 00:51:43;;;;;;;14.20;13.60;;;21.10;68.80;;;;;;4992112;28;20483;-54
2024/03/22 00:54:08;;;;;;;14.77;14.27;;;21.10;68.80;;;;;;4990860;28;20447;-56
2024/03/22 00:56:35;;;;;;;13.90;13.40;;;21.10;68.80;;;;;;4991446;28;20451;-57
2024/03/22 00:59:01;;;;;;;13.90;13.30;;;21.10;68.80;;;;;;4992734;28;20623;-55
2024/03/22 01:01:28;;;;;;;14.50;13.80;;;21.10;68.80;;;;;;4995912;28;20459;-57
2024/03/22 01:03:53;;;;;;;14.23;13.73;;;21.10;68.80;;;;;;4989076;28;20239;-54
2024/03/22 01:06:24;;;;;;;14.00;13.50;;;21.10;68.80;;;;;;4990111;28;20451;-55
2024/03/22 01:08:51;;;;;;;14.20;13.50;;;21.10;68.80;;;;;;4996059;28;20207;-56
2024/03/22 01:11:18;;;;;;;15.20;14.60;;;21.10;68.80;;;;;;4995748;28;20467;-55
2024/03/22 01:13:44;;;;;;;14.67;14.10;;;21.10;68.80;;;;;;4987057;28;20447;-55
2024/03/22 01:16:10;;;;;;;13.93;13.43;;;21.10;68.80;;;;;;4995531;28;20469;-57
2024/03/22 01:18:37;;;;;;;15.33;14.83;;;21.10;68.90;;;;;;4995592;28;20219;-58
2024/03/22 01:21:06;;;;;;;15.40;14.70;;;21.10;68.90;;;;;;4994930;28;20835;-55
2024/03/22 01:23:34;;;;;;;13.63;13.13;;;21.00;68.70;;;;;;4987719;28;20458;-55
2024/03/22 01:26:00;;;;;;;14.50;13.90;;;21.10;68.80;;;;;;4995165;28;20501;-56
2024/03/22 01:28:26;;;;;;;14.17;13.60;;;21.00;68.70;;;;;;4995736;28;20853;-59
2024/03/22 01:30:53;;;;;;;13.77;13.33;;;21.00;68.70;;;;;;4995195;28;20438;-58
2024/03/22 01:33:19;;;;;;;14.00;13.50;;;21.00;68.70;;;;;;4985479;28;20231;-56
2024/03/22 01:35:46;;;;;;;13.60;13.20;;;21.00;68.70;;;;;;4994876;28;20470;-53
2024/03/22 01:38:11;;;;;;;14.33;13.73;;;21.00;68.70;;;;;;4995208;28;20606;-55
2024/03/22 01:40:39;;;;;;;14.77;14.13;;;21.00;68.80;;;;;;4995083;28;20447;-57
2024/03/22 01:43:05;;;;;;;14.00;13.60;;;21.00;68.80;;;;;;4989056;28;20223;-59
2024/03/22 01:45:34;;;;;;;14.30;13.80;;;21.00;68.80;;;;;;4987197;28;20822;-59
2024/03/22 01:48:00;;;;;;;13.90;13.40;;;21.00;68.70;;;;;;4985929;28;20204;-58
2024/03/22 01:50:28;;;;;;;14.17;13.67;;;21.00;68.80;;;;;;4992410;28;20435;-57
2024/03/22 01:52:54;;;;;;;14.27;13.77;;;21.00;68.80;;;;;;4979864;28;20464;-57
2024/03/22 01:55:21;;;;;;;13.50;13.00;;;21.00;68.80;;;;;;4995107;28;20453;-56
2024/03/22 01:57:49;;;;;;;13.87;13.37;;;21.00;68.70;;;;;;4994270;28;20563;-58
2024/03/22 02:00:16;;;;;;;13.53;13.03;;;20.90;68.60;;;;;;4989914;28;20459;-55
2024/03/22 02:02:42;;;;;;;14.27;13.73;;;21.00;68.70;;;;;;4994919;28;20466;-56
2024/03/22 02:05:16;;;;;;;14.07;13.63;;;21.00;68.70;;;;;;4994795;28;20936;-58
2024/03/22 02:07:42;;;;;;;15.47;14.97;;;20.90;68.60;;;;;;4994132;28;20298;-56
2024/03/22 02:10:12;;;;;;;14.10;13.50;;;20.90;68.50;;;;;;4989534;28;21129;-59
2024/03/22 02:12:38;;;;;;;14.77;14.20;;;20.90;68.60;;;;;;4991528;28;20482;-60
2024/03/22 02:15:08;;;;;;;14.73;14.13;;;20.90;68.50;;;;;;4994689;28;20451;-59
2024/03/22 02:17:34;;;;;;;14.23;13.63;;;20.90;68.50;;;;;;4994445;28;20211;-60
2024/03/22 02:20:01;;;;;;;14.60;14.00;;;20.90;68.50;;;;;;4989704;28;20490;-60
2024/03/22 02:22:27;;;;;;;14.13;13.63;;;20.90;68.50;;;;;;4994591;28;20471;-58
2024/03/22 02:24:56;;;;;;;15.33;14.73;;;20.90;68.60;;;;;;4994459;28;20457;-60
2024/03/22 02:27:22;;;;;;;14.10;13.60;;;20.90;68.50;;;;;;4994065;28;21049;-56
2024/03/22 02:29:49;;;;;;;15.37;14.77;;;20.90;68.50;;;;;;4992605;28;20446;-56
2024/03/22 02:32:15;;;;;;;14.47;13.87;;;20.90;68.60;;;;;;4987938;28;20232;-56
2024/03/22 02:34:42;;;;;;;14.93;14.37;;;20.90;68.50;;;;;;4994146;28;20454;-60
2024/03/22 02:37:07;;;;;;;13.70;13.30;;;20.90;68.50;;;;;;4993841;28;20204;-60
2024/03/22 02:39:34;;;;;;;13.80;13.27;;;20.90;68.50;;;;;;4990480;28;20552;-60
2024/03/22 02:42:01;;;;;;;13.83;13.33;;;20.90;68.50;;;;;;4989960;28;20224;-60
2024/03/22 02:44:28;;;;;;;15.00;14.30;;;20.80;68.60;;;;;;4989295;28;20455;-59
2024/03/22 02:46:54;;;;;;;15.03;14.03;;;20.80;68.80;;;;;;4993529;28;20800;-58
2024/03/22 02:49:21;;;;;;;13.57;13.10;;;20.80;68.80;;;;;;4992695;28;20454;-60
2024/03/22 02:51:46;;;;;;;13.70;13.20;;;20.80;68.80;;;;;;4991325;28;20836;-60
2024/03/22 02:54:13;;;;;;;14.50;13.80;;;20.80;68.80;;;;;;4991907;28;20960;-59
2024/03/22 02:56:39;;;;;;;13.93;13.43;;;20.80;68.90;;;;;;4993703;28;20251;-61
2024/03/22 02:59:07;;;;;;;13.87;13.30;;;20.80;69.70;;;;;;4985689;28;20478;-59
2024/03/22 03:01:32;;;;;;;14.50;13.90;;;20.80;69.00;;;;;;4990017;28;20224;-61
2024/03/22 03:03:59;;;;;;;13.67;13.27;;;20.80;69.00;;;;;;4993670;28;20847;-61
2024/03/22 03:06:25;;;;;;;14.60;14.00;;;20.80;69.00;;;;;;4991994;28;20208;-57
2024/03/22 03:08:52;;;;;;;13.97;13.57;;;20.80;69.00;;;;;;4993643;28;20944;-59
2024/03/22 03:11:17;;;;;;;14.87;14.27;;;20.80;68.90;;;;;;4984784;28;20231;-59
2024/03/22 03:13:44;;;;;;;14.00;13.50;;;20.80;68.90;;;;;;4993352;28;20450;-59
2024/03/22 03:16:11;;;;;;;13.90;13.40;;;20.80;69.00;;;;;;4993088;28;20211;-59
2024/03/22 03:18:38;;;;;;;14.30;13.80;;;20.80;68.90;;;;;;4993241;28;20475;-60
2024/03/22 03:21:04;;;;;;;15.70;14.90;;;20.80;68.90;;;;;;4989632;28;20463;-57
2024/03/22 03:23:30;;;;;;;14.37;13.87;;;20.80;68.90;;;;;;4992789;28;20450;-59
2024/03/22 03:25:56;;;;;;;14.57;14.07;;;20.80;68.90;;;;;;4992771;28;20959;-59
2024/03/22 03:28:25;;;;;;;14.80;14.20;;;20.80;69.00;;;;;;4987062;28;20436;-60
2024/03/22 03:30:51;;;;;;;14.27;13.77;;;20.80;68.80;;;;;;4991259;28;20230;-61
2024/03/22 03:33:19;;;;;;;17.50;16.87;;;20.80;68.90;;;;;;4993343;28;20439;-59
2024/03/22 03:35:46;;;;;;;15.37;14.73;;;20.80;68.90;;;;;;4992603;28;20204;-58
2024/03/22 03:38:12;;;;;;;14.73;14.13;;;20.80;68.80;;;;;;4992741;28;20443;-61
2024/03/22 03:40:39;;;;;;;15.00;14.40;;;20.80;68.80;;;;;;4984829;28;20443;-58
2024/03/22 03:43:06;;;;;;;14.33;13.83;;;20.80;68.90;;;;;;4993021;28;20451;-58
2024/03/22 03:45:31;;;;;;;14.30;13.80;;;20.80;69.60;;;;;;4992784;28;20439;-60
2024/03/22 03:47:58;;;;;;;14.80;14.10;;;20.80;68.80;;;;;;4992088;28;20873;-60
2024/03/22 03:50:25;;;;;;;14.23;13.73;;;20.80;68.70;;;;;;4992968;28;20192;-61
2024/03/22 03:52:52;;;;;;;14.77;14.27;;;20.80;68.80;;;;;;4992585;28;20497;-59
2024/03/22 03:55:18;;;;;;;14.87;14.37;;;20.80;68.70;;;;;;4992583;28;20451;-61
2024/03/22 03:57:45;;;;;;;15.50;14.90;;;20.70;68.60;;;;;;4983453;28;20439;-59
2024/03/22 04:00:12;;;;;;;14.60;14.07;;;20.80;68.60;;;;;;4992584;28;20483;-57
2024/03/22 04:02:39;;;;;;;14.60;14.10;;;20.70;68.50;;;;;;4992572;28;20470;-60
2024/03/22 04:05:05;;;;;;;14.67;14.17;;;20.80;68.60;;;;;;4992455;28;20801;-58
2024/03/22 04:07:34;;;;;;;16.10;15.50;;;20.70;68.50;;;;;;4987284;28;20887;-60
2024/03/22 04:10:00;;;;;;;15.97;15.03;;;20.70;68.60;;;;;;4992395;28;20816;-58
2024/03/22 04:12:27;;;;;;;15.13;14.53;;;20.70;68.40;;;;;;4992373;28;20463;-59
2024/03/22 04:14:52;;;;;;;15.67;15.10;;;20.70;68.40;;;;;;4992232;28;20439;-60
2024/03/22 04:17:19;;;;;;;14.73;14.23;;;20.70;68.50;;;;;;4986731;28;20442;-60
2024/03/22 04:19:45;;;;;;;15.80;15.20;;;20.70;68.50;;;;;;4988987;28;20215;-61
2024/03/22 04:22:12;;;;;;;15.40;14.90;;;20.70;68.60;;;;;;4992226;28;20999;-60
2024/03/22 04:24:39;;;;;;;15.40;14.70;;;20.70;68.60;;;;;;4992212;28;20439;-57
2024/03/22 04:27:07;;;;;;;15.20;14.70;;;20.70;68.50;;;;;;4987250;28;20559;-58
2024/03/22 04:29:32;;;;;;;16.10;15.50;;;20.70;68.50;;;;;;4992081;28;20465;-61
2024/03/22 04:31:59;;;;;;;15.07;14.57;;;20.70;68.50;;;;;;4992036;28;21043;-60
2024/03/22 04:34:25;;;;;;;15.23;14.73;;;20.70;68.50;;;;;;4991975;28;20211;-60
2024/03/22 04:36:52;;;;;;;14.73;14.33;;;20.70;68.50;;;;;;4990266;28;20787;-59
2024/03/22 04:39:19;;;;;;;15.37;14.80;;;20.70;68.50;;;;;;4985217;28;20637;-58
2024/03/22 04:41:46;;;;;;;15.50;14.87;;;20.70;68.40;;;;;;4991923;28;20840;-59
2024/03/22 04:44:13;;;;;;;15.50;15.00;;;20.70;68.40;;;;;;4992053;28;20526;-58
2024/03/22 04:46:40;;;;;;;15.57;14.90;;;20.70;68.40;;;;;;4988911;28;20470;-60
2024/03/22 04:49:06;;;;;;;15.30;14.80;;;20.60;69.20;;;;;;4991522;28;20442;-58
2024/03/22 04:51:32;;;;;;;16.00;15.30;;;20.60;68.20;;;;;;4992165;28;20470;-56
2024/03/22 04:53:58;;;;;;;15.17;14.67;;;20.60;68.30;;;;;;4985701;28;20200;-54
2024/03/22 04:56:25;;;;;;;15.37;14.77;;;20.60;68.40;;;;;;4991827;28;20518;-55
2024/03/22 04:58:52;;;;;;;15.87;15.27;;;20.60;69.30;;;;;;4991843;28;20223;-56
2024/03/22 05:01:18;;;;;;;15.87;15.37;;;20.60;68.60;;;;;;4991941;28;20505;-60
2024/03/22 05:03:44;;;;;;;15.90;15.20;;;20.60;68.70;;;;;;4991733;28;20446;-57
2024/03/22 05:06:11;;;;;;;15.93;15.33;;;20.60;68.70;;;;;;4991523;28;20442;-56
2024/03/22 05:08:37;;;;;;;15.07;14.57;;;20.60;68.70;;;;;;4992128;28;20208;-59
2024/03/22 05:11:03;;;;;;;15.87;15.20;;;20.60;68.70;;;;;;4991707;28;20474;-55
2024/03/22 05:13:29;;;;;;;16.03;15.50;;;20.60;68.70;;;;;;4983211;28;20203;-57
2024/03/22 05:15:57;;;;;;;15.70;15.20;;;20.60;68.70;;;;;;4991753;28;20450;-57
2024/03/22 05:18:23;;;;;;;15.83;15.30;;;20.60;68.60;;;;;;4991683;28;20677;-54
2024/03/22 05:20:50;;;;;;;15.90;15.30;;;20.60;68.60;;;;;;4991397;28;20481;-54
2024/03/22 05:23:16;;;;;;;16.70;16.10;;;20.60;68.60;;;;;;4988943;28;20684;-57
2024/03/22 05:25:43;;;;;;;16.20;15.70;;;20.60;68.70;;;;;;4991494;28;20443;-59
2024/03/22 05:28:08;;;;;;;15.90;15.40;;;20.60;68.70;;;;;;4991605;28;20438;-57
2024/03/22 05:30:35;;;;;;;16.50;15.90;;;20.60;68.70;;;;;;4991132;28;20443;-56
2024/03/22 05:33:02;;;;;;;16.47;15.87;;;20.60;68.70;;;;;;4991874;28;20643;-57
2024/03/22 05:35:29;;;;;;;17.27;16.67;;;20.60;68.70;;;;;;4991748;28;20451;-55
2024/03/22 05:37:55;;;;;;;14.87;14.47;;;20.60;68.80;;;;;;4991248;28;20439;-59
2024/03/22 05:40:22;;;;;;;15.90;15.30;;;20.60;68.80;;;;;;4991323;28;20522;-58
2024/03/22 05:42:47;;;;;;;15.50;14.90;;;20.60;68.80;;;;;;4983888;28;20290;-58
2024/03/22 05:45:14;;;;;;;15.77;15.13;;;20.60;68.80;;;;;;4992805;28;20451;-58
2024/03/22 05:47:40;;;;;;;16.97;16.17;;;20.60;68.90;;;;;;4994872;28;20206;-60
2024/03/22 05:50:09;;;;;;;16.00;15.40;;;20.60;69.10;;;;;;4994621;28;20932;-59
2024/03/22 05:52:35;;;;;;;17.07;16.47;;;20.60;69.20;;;;;;4994895;28;20223;-58
2024/03/22 05:55:02;;;;;;;15.90;15.30;;;20.60;69.20;;;;;;4995079;28;20466;-57
2024/03/22 05:57:28;;;;;;;16.50;15.90;;;20.60;69.20;;;;;;4994685;28;20255;-57
2024/03/22 05:59:55;;;;;;;16.27;15.73;;;20.60;69.30;;;;;;4994559;28;20482;-57
2024/03/22 06:02:20;;;;;;;14.60;14.00;;;20.60;68.90;;;;;;4986825;28;20299;-64
2024/03/22 06:04:47;;;;;;;16.53;15.83;;;20.60;69.80;;;;;;4994188;28;20518;-64
2024/03/22 06:07:16;;;;;;;15.97;15.30;;;20.70;69.80;;;;;;4993556;28;20686;-61
2024/03/22 06:09:46;;;;;;;15.63;15.10;;;20.80;69.70;;;;;;4985172;28;20460;-58
2024/03/22 06:12:13;;;;;;;16.17;15.57;;;20.80;69.70;;;;;;4993497;28;20514;-64
2024/03/22 06:14:40;;;;;;;17.00;16.47;;;20.90;69.40;;;;;;4993962;28;20434;-65
2024/03/22 06:17:06;;;;;;;16.87;16.27;;;20.90;69.70;;;;;;4993865;28;20447;-61
2024/03/22 06:19:33;;;;;;;16.63;15.83;;;21.00;69.40;;;;;;4990165;28;20482;-63
2024/03/22 06:21:59;;;;;;;16.60;15.90;;;21.00;69.00;;;;;;4994123;28;20223;-66
2024/03/22 06:24:27;;;;;;;16.70;15.67;;;21.00;68.70;;;;;;4994250;28;20445;-64
2024/03/22 06:26:52;;;;;;;16.13;15.60;;;21.10;68.60;;;;;;4993814;28;20207;-64
2024/03/22 06:29:19;;;;;;;17.23;16.53;;;21.10;68.40;;;;;;4989990;28;20428;-64
2024/03/22 06:31:45;;;;;;;16.80;16.20;;;21.20;68.50;;;;;;4990092;28;20220;-66
2024/03/22 06:34:11;;;;;;;17.13;16.23;;;21.20;68.30;;;;;;4994426;28;20451;-64
2024/03/22 06:36:37;;;;;;;17.13;16.50;;;21.20;68.20;;;;;;4993271;28;20207;-67
2024/03/22 06:39:06;;;;;;;17.90;17.30;;;21.20;67.90;;;;;;4989192;28;20475;-69
2024/03/22 06:41:34;;;;;;;18.53;17.63;;;21.20;67.90;;;;;;4994051;28;20278;-66
2024/03/22 06:44:01;;;;;;;17.30;16.60;;;21.20;67.80;;;;;;4993863;28;20457;-65
2024/03/22 06:46:27;;;;;;;15.37;14.87;;;21.30;67.80;;;;;;4993846;28;20471;-68
2024/03/22 06:48:55;;;;;;;16.07;15.47;;;21.30;67.60;;;;;;4992862;28;20530;-68
2024/03/22 06:51:21;;;;;;;16.70;16.00;;;21.30;67.60;;;;;;4986456;28;20469;-67
2024/03/22 06:53:48;;;;;;;15.93;15.37;;;21.30;67.50;;;;;;4994034;28;20439;-66
2024/03/22 06:56:14;;;;;;;16.50;16.00;;;21.30;68.30;;;;;;4992612;28;20254;-60
2024/03/22 06:58:42;;;;;;;15.93;15.43;;;21.30;67.30;;;;;;4991768;28;20443;-63
2024/03/22 07:01:08;;;;;;;16.93;16.33;;;21.40;67.30;;;;;;4985301;28;20490;-64
2024/03/22 07:03:35;;;;;;;16.70;16.10;;;21.40;67.20;;;;;;4993746;28;20442;-64
2024/03/22 07:06:00;;;;;;;16.80;16.30;;;21.40;67.00;;;;;;4993183;28;20450;-64
2024/03/22 07:08:27;;;;;;;17.37;16.67;;;21.40;66.70;;;;;;4993507;28;20450;-64
2024/03/22 07:10:54;;;;;;;16.70;16.20;;;21.50;66.80;;;;;;4983712;28;20435;-64
2024/03/22 07:13:21;;;;;;;17.87;16.97;;;21.50;66.60;;;;;;4993541;28;20467;-64
2024/03/22 07:15:49;;;;;;;17.83;17.23;;;21.50;66.40;;;;;;4993282;28;20439;-63
2024/03/22 07:18:16;;;;;;;16.50;15.90;;;21.50;66.40;;;;;;4985035;28;20821;-66
2024/03/22 07:20:42;;;;;;;16.97;16.37;;;21.50;66.40;;;;;;4993168;28;20478;-65
2024/03/22 07:23:09;;;;;;;17.70;17.10;;;21.50;66.20;;;;;;4993231;28;20443;-64
2024/03/22 07:25:35;;;;;;;17.37;16.77;;;21.50;66.10;;;;;;4993452;28;20824;-66
2024/03/22 07:28:02;;;;;;;18.57;17.80;;;21.50;66.10;;;;;;4990765;28;20443;-64
2024/03/22 07:30:28;;;;;;;18.20;17.60;;;21.50;66.20;;;;;;4986543;28;20215;-63
2024/03/22 07:32:56;;;;;;;17.43;16.83;;;21.60;66.10;;;;;;4992754;28;20459;-64
2024/03/22 07:35:22;;;;;;;17.70;17.00;;;21.60;65.90;;;;;;4993045;28;20291;-63
2024/03/22 07:37:49;;;;;;;17.17;16.37;;;21.60;65.90;;;;;;4986019;28;20444;-64
2024/03/22 07:40:15;;;;;;;17.60;17.00;;;21.60;65.80;;;;;;4992383;28;20487;-60
2024/03/22 07:42:42;;;;;;;17.57;16.87;;;21.60;65.80;;;;;;4992854;28;20481;-63
2024/03/22 07:45:08;;;;;;;17.20;16.60;;;21.60;65.70;;;;;;4992807;28;20474;-60
2024/03/22 07:47:37;;;;;;;17.27;16.57;;;21.60;65.80;;;;;;4988959;28;20446;-65
2024/03/22 07:50:05;;;;;;;18.00;17.40;;;21.60;65.90;;;;;;4990479;28;20501;-63
2024/03/22 07:52:32;;;;;;;17.40;16.70;;;21.70;66.70;;;;;;4992488;28;20471;-59
2024/03/22 07:54:58;;;;;;;17.93;17.20;;;21.70;66.90;;;;;;4992405;28;20439;-61
2024/03/22 07:57:25;;;;;;;17.27;16.57;;;21.70;66.90;;;;;;4991767;28;20485;-61
2024/03/22 07:59:50;;;;;;;17.30;16.60;;;21.80;66.80;;;;;;4984565;28;20223;-67
2024/03/22 08:02:17;;;;;;;17.23;16.63;;;21.80;67.20;;;;;;4992408;28;20466;-64
2024/03/22 08:04:43;;;;;;;17.90;17.20;;;21.80;66.90;;;;;;4992639;28;20602;-65
2024/03/22 08:07:11;;;;;;;17.53;16.80;;;21.80;66.60;;;;;;4992171;28;20832;-66
2024/03/22 08:09:37;;;;;;;17.60;16.90;;;21.80;66.50;;;;;;4983728;28;20928;-65
2024/03/22 08:12:04;;;;;;;18.30;17.60;;;21.80;66.30;;;;;;4992189;28;20470;-62
2024/03/22 08:14:30;;;;;;;17.80;17.00;;;21.80;66.60;;;;;;4992524;28;20621;-63
2024/03/22 08:16:57;;;;;;;18.57;17.83;;;21.80;66.50;;;;;;4992096;28;20458;-68
2024/03/22 08:19:22;;;;;;;19.27;18.33;;;21.80;66.30;;;;;;4987392;28;20715;-62
2024/03/22 08:21:49;;;;;;;18.03;17.33;;;21.80;66.50;;;;;;4992235;28;20466;-61
2024/03/22 08:24:18;;;;;;;19.17;18.10;;;21.80;66.20;;;;;;4992299;28;20230;-61
2024/03/22 08:26:46;;;;;;;19.37;18.50;;;21.80;66.50;;;;;;4984983;28;20444;-63
2024/03/22 08:29:12;;;;;;;18.20;17.30;;;21.80;66.40;;;;;;4991067;28;20459;-64
2024/03/22 08:31:39;;;;;;;18.67;17.73;;;21.80;66.40;;;;;;4992212;28;20465;-63
2024/03/22 08:34:05;;;;;;;18.37;17.73;;;21.80;66.70;;;;;;4992178;28;20928;-60
2024/03/22 08:36:32;;;;;;;18.67;17.50;;;21.90;66.50;;;;;;4990020;28;20509;-60
2024/03/22 08:38:58;;;;;;;19.20;18.20;;;21.90;66.20;;;;;;4983405;28;20616;-52
2024/03/22 08:41:27;;;;;;;20.40;19.17;;;21.90;66.30;;;;;;4991792;28;21010;-61
2024/03/22 08:43:52;;;;;;;19.98;19.00;;;21.80;65.90;;;;;;4991801;28;20810;-65
2024/03/22 08:46:21;;;;;;;21.70;20.60;;;21.80;65.90;;;;;;4989755;28;20195;-64
2024/03/22 08:48:47;;;;;;;20.53;19.63;;;21.80;66.20;;;;;;4991593;28;20288;-63
2024/03/22 08:51:14;;;;;;;22.10;21.00;;;21.80;65.50;;;;;;4991673;28;20471;-62
2024/03/22 08:53:40;;;;;;;21.30;19.97;;;21.80;65.70;;;;;;4992170;28;20435;-61
2024/03/22 08:56:07;;;;;;;20.90;19.90;;;21.80;65.10;;;;;;4990736;28;20451;-63
2024/03/22 08:58:34;;;;;;;20.27;19.40;;;21.80;65.20;;;;;;4991863;28;20207;-63
2024/03/22 09:01:01;;;;;;;21.60;20.50;;;21.80;64.60;;;;;;4991665;28;20482;-60
2024/03/22 09:03:27;;;;;;;21.20;20.10;;;21.80;64.70;;;;;;4991567;28;20454;-64
2024/03/22 09:05:54;;;;;;;21.67;20.47;;;21.80;64.30;;;;;;4990985;28;20438;-64
2024/03/22 09:08:21;;;;;;;21.17;19.87;;;21.70;64.00;;;;;;4991652;28;20204;-64
2024/03/22 09:10:48;;;;;;;22.33;21.23;;;21.80;64.10;;;;;;4991707;28;20446;-64
2024/03/22 09:13:14;;;;;;;20.83;19.73;;;21.80;64.10;;;;;;4991699;28;20442;-64
2024/03/22 09:15:42;;;;;;;21.27;20.30;;;21.80;63.90;;;;;;4991824;28;20451;-64
2024/03/22 09:18:08;;;;;;;20.13;18.93;;;21.80;64.20;;;;;;4990906;28;20215;-64
2024/03/22 09:20:36;;;;;;;20.90;19.80;;;21.80;64.20;;;;;;4993265;28;20478;-63
2024/03/22 09:23:02;;;;;;;21.27;20.17;;;21.90;63.60;;;;;;4995474;28;20478;-64
2024/03/22 09:25:28;;;;;;;19.17;18.37;;;21.90;63.00;;;;;;4995555;28;20435;-64
2024/03/22 09:27:54;;;;;;;19.90;18.63;;;21.90;62.60;;;;;;4986929;28;20201;-64
2024/03/22 09:30:21;;;;;;;20.63;19.73;;;22.00;62.40;;;;;;4994775;28;20443;-64
2024/03/22 09:32:48;;;;;;;20.10;19.17;;;22.00;62.30;;;;;;4995103;28;20224;-63
2024/03/22 09:35:16;;;;;;;20.40;19.37;;;22.00;62.00;;;;;;4989662;28;20539;-63
2024/03/22 09:37:42;;;;;;;20.27;19.37;;;22.00;61.80;;;;;;4995061;28;20450;-64
2024/03/22 09:40:09;;;;;;;21.40;20.50;;;22.00;61.70;;;;;;4994951;28;20474;-64
2024/03/22 09:42:39;;;;;;;20.50;19.60;;;22.00;61.70;;;;;;4995109;28;20290;-65
2024/03/22 09:45:10;;;;;;;20.27;19.37;;;22.00;61.30;;;;;;4986914;28;20531;-64
2024/03/22 09:47:36;;;;;;;24.93;23.93;;;21.90;62.20;;;;;;4994752;28;20496;-66
2024/03/22 09:50:08;;;;;;;26.70;25.50;;;21.90;61.90;;;;;;4994817;28;20533;-66
2024/03/22 09:52:35;;;;;;;26.50;25.27;;;21.90;62.10;;;;;;4994971;28;20552;-66
2024/03/22 09:55:03;;;;;;;26.40;25.03;;;21.90;62.20;;;;;;4992974;28;20891;-65
2024/03/22 09:57:30;;;;;;;26.30;24.97;;;21.90;62.00;;;;;;4994330;28;20501;-68
2024/03/22 09:59:57;;;;;;;24.93;23.63;;;21.90;62.00;;;;;;4994750;28;20534;-66
2024/03/22 10:02:24;;;;;;;26.03;24.70;;;21.90;61.80;;;;;;4994649;28;20455;-68
2024/03/22 10:04:51;;;;;;;26.20;24.80;;;21.90;61.80;;;;;;4985959;28;20530;-58
2024/03/22 10:07:19;;;;;;;25.10;23.73;;;22.00;61.90;;;;;;4994306;28;20454;-58
2024/03/22 10:09:46;;;;;;;24.50;23.33;;;21.90;61.70;;;;;;4994751;28;20443;-66
2024/03/22 10:12:12;;;;;;;24.67;23.57;;;21.90;61.80;;;;;;4994600;28;20475;-65
2024/03/22 10:14:41;;;;;;;25.77;24.67;;;21.80;62.30;;;;;;4993405;28;20498;-63
2024/03/22 10:17:08;;;;;;;25.60;24.40;;;21.80;62.40;;;;;;4993924;28;20666;-67
2024/03/22 10:19:35;;;;;;;24.80;23.70;;;21.90;62.90;;;;;;4994532;28;20874;-67
2024/03/22 10:22:01;;;;;;;27.30;25.47;;;21.90;62.60;;;;;;4994504;28;20588;-68
2024/03/22 10:24:29;;;;;;;25.30;23.87;;;21.80;63.00;;;;;;4985761;28;20959;-69
2024/03/22 10:26:55;;;;;;;24.73;23.43;;;21.80;63.00;;;;;;4994053;28;20439;-69
2024/03/22 10:29:23;;;;;;;24.47;23.27;;;21.80;63.70;;;;;;4991484;28;20443;-69
2024/03/22 10:31:49;;;;;;;26.53;25.17;;;21.70;63.80;;;;;;4993968;28;20451;-68
2024/03/22 10:34:18;;;;;;;25.73;24.43;;;21.70;64.00;;;;;;4985424;28;20444;-65
2024/03/22 10:36:45;;;;;;;24.00;22.90;;;21.60;64.20;;;;;;4994838;28;20797;-65
2024/03/22 10:39:16;;;;;;;25.27;23.80;;;21.70;66.20;;;;;;4994115;28;20450;-65
2024/03/22 10:41:43;;;;;;;24.00;22.90;;;21.70;65.70;;;;;;4993724;28;20493;-65
2024/03/22 10:44:10;;;;;;;25.07;23.97;;;21.70;65.30;;;;;;4993452;28;20455;-67
2024/03/22 10:46:37;;;;;;;25.10;24.00;;;21.70;66.30;;;;;;4993870;28;20443;-65
2024/03/22 10:49:06;;;;;;;24.67;23.37;;;21.70;65.80;;;;;;4993763;28;20999;-65
2024/03/22 10:51:34;;;;;;;25.30;24.10;;;21.70;65.90;;;;;;5019801;23;20527;-68
2024/03/22 10:54:02;;;;;;;23.53;22.33;;;21.70;66.10;;;;;;4993378;28;20546;-66
2024/03/22 10:56:29;;;;;;;24.97;23.57;;;21.70;66.00;;;;;;4993769;28;20448;-67
2024/03/22 10:58:57;;;;;;;25.33;24.17;;;21.70;65.90;;;;;;4993805;28;20843;-66
2024/03/22 11:01:24;;;;;;;24.97;23.70;;;21.70;65.80;;;;;;4993580;28;20486;-68
2024/03/22 11:03:51;;;;;;;25.90;24.53;;;21.70;65.80;;;;;;4993306;28;20947;-68
2024/03/22 11:06:19;;;;;;;26.60;25.17;;;21.60;65.60;;;;;;4980355;28;20436;-66
2024/03/22 11:08:50;;;;;;;24.70;23.60;;;21.60;65.70;;;;;;4994123;28;20443;-67
2024/03/22 11:11:18;;;;;;;23.40;22.30;;;21.70;65.60;;;;;;4994087;28;20939;-66
2024/03/22 11:13:47;;;;;;;25.60;24.20;;;21.70;65.30;;;;;;4990239;28;20890;-68
2024/03/22 11:16:15;;;;;;;25.60;24.43;;;21.80;65.10;;;;;;4975060;28;20960;-65
2024/03/22 11:18:42;;;;;;;26.47;25.23;;;21.80;65.00;;;;;;4975033;28;20470;-65
2024/03/22 11:21:08;;;;;;;24.50;23.30;;;21.80;65.00;;;;;;4974649;28;20880;-69
2024/03/22 11:23:36;;;;;;;26.10;24.90;;;21.80;64.90;;;;;;4975356;28;20458;-70
2024/03/22 11:26:02;;;;;;;26.17;24.90;;;21.80;64.50;;;;;;4973748;28;20481;-68
2024/03/22 11:28:29;;;;;;;23.30;22.30;;;21.90;64.50;;;;;;4973968;28;20447;-68
2024/03/22 11:30:55;;;;;;;23.53;22.40;;;21.90;64.40;;;;;;4974443;28;20435;-66
2024/03/22 11:33:23;;;;;;;22.37;21.27;;;21.90;64.30;;;;;;4973908;28;20445;-68
2024/03/22 11:35:49;;;;;;;24.50;23.10;;;21.90;64.30;;;;;;4983162;28;20204;-69
2024/03/22 11:38:16;;;;;;;23.10;21.80;;;21.90;64.30;;;;;;4987532;28;20440;-68
2024/03/22 11:40:43;;;;;;;23.47;22.30;;;21.90;64.10;;;;;;4976401;28;20576;-68
2024/03/22 11:43:11;;;;;;;24.37;23.07;;;21.80;63.80;;;;;;4975849;28;20486;-68
2024/03/22 11:45:37;;;;;;;23.77;22.53;;;21.80;63.50;;;;;;4993534;28;20443;-70
2024/03/22 11:48:06;;;;;;;24.37;23.13;;;21.80;63.60;;;;;;4993741;28;20513;-70
2024/03/22 11:50:33;;;;;;;23.80;22.70;;;21.80;63.50;;;;;;4994138;28;20446;-71
2024/03/22 11:53:01;;;;;;;23.60;22.50;;;21.80;63.60;;;;;;4992890;28;20544;-71
2024/03/22 11:55:29;;;;;;;23.60;22.60;;;21.80;63.60;;;;;;4979075;28;20809;-69
2024/03/22 11:57:58;;;;;;;24.30;23.20;;;21.80;63.70;;;;;;4973255;28;20444;-67
2024/03/22 12:00:25;;;;;;;25.17;24.00;;;21.80;63.80;;;;;;4974052;28;20231;-66
2024/03/22 12:02:52;;;;;;;25.13;23.93;;;21.80;63.90;;;;;;4973384;28;20471;-68
2024/03/22 12:05:18;;;;;;;22.47;21.47;;;21.80;63.90;;;;;;4988267;28;20443;-67
2024/03/22 12:07:46;;;;;;;23.27;22.13;;;21.70;63.20;;;;;;4992770;28;20821;-66
2024/03/22 12:10:12;;;;;;;26.40;25.30;;;21.80;63.90;;;;;;4992861;28;20439;-66
2024/03/22 12:12:39;;;;;;;23.73;22.73;;;21.80;63.60;;;;;;4980225;28;20541;-66
2024/03/22 12:15:06;;;;;;;23.77;22.77;;;21.90;63.30;;;;;;4993328;28;20450;-63
2024/03/22 12:17:33;;;;;;;25.27;24.07;;;21.90;62.60;;;;;;4992310;28;20522;-66
2024/03/22 12:19:59;;;;;;;24.17;23.17;;;22.00;62.40;;;;;;4992554;28;20923;-64
2024/03/22 12:22:26;;;;;;;24.37;23.37;;;22.00;61.90;;;;;;4992694;28;20467;-64
2024/03/22 12:24:53;;;;;;;25.63;24.23;;;22.10;61.60;;;;;;4992322;28;20200;-65